createdAt,value
2022-08-31T00:00:41.894Z,0.00
2022-08-31T00:01:41.997Z,0.00
2022-08-31T00:02:41.851Z,0.00
2022-08-31T00:03:41.885Z,0.00
2022-08-31T00:04:42.905Z,0.00
2022-08-31T00:05:41.854Z,0.00
2022-08-31T00:06:41.856Z,0.00
2022-08-31T00:07:41.835Z,0.00
2022-08-31T00:08:41.850Z,0.00
2022-08-31T00:09:41.838Z,0.00
2022-08-31T00:10:43.255Z,0.00
2022-08-31T00:11:41.797Z,0.00
2022-08-31T00:12:41.825Z,0.00
2022-08-31T00:13:41.788Z,0.00
2022-08-31T00:14:41.885Z,0.00
2022-08-31T00:15:41.790Z,0.00
2022-08-31T00:16:41.841Z,0.00
2022-08-31T00:17:41.780Z,0.00
2022-08-31T00:18:41.773Z,0.00
2022-08-31T00:19:41.795Z,0.00
2022-08-31T00:20:41.757Z,0.00
2022-08-31T00:21:41.764Z,0.00
2022-08-31T00:22:41.737Z,0.00
2022-08-31T00:23:41.738Z,0.00
2022-08-31T00:24:41.732Z,0.00
2022-08-31T00:25:41.844Z,0.00
2022-08-31T00:26:41.725Z,0.00
2022-08-31T00:27:41.708Z,0.00
2022-08-31T00:28:41.697Z,0.00
2022-08-31T00:29:41.708Z,0.00
2022-08-31T00:30:41.717Z,0.00
2022-08-31T00:31:41.777Z,0.00
2022-08-31T00:32:41.688Z,0.00
2022-08-31T00:33:41.661Z,0.00
2022-08-31T00:34:41.658Z,0.00
2022-08-31T00:35:41.658Z,0.00
2022-08-31T00:36:41.683Z,0.00
2022-08-31T00:37:41.665Z,0.00
2022-08-31T00:38:41.638Z,0.00
2022-08-31T00:39:41.638Z,0.00
2022-08-31T00:40:44.902Z,0.00
2022-08-31T00:41:41.745Z,0.00
2022-08-31T00:42:42.610Z,0.00
2022-08-31T00:43:41.623Z,0.00
2022-08-31T00:44:41.617Z,0.00
2022-08-31T00:45:41.686Z,0.00
2022-08-31T00:46:41.595Z,0.00
2022-08-31T00:47:41.619Z,0.00
2022-08-31T00:48:41.584Z,0.00
2022-08-31T00:49:41.588Z,0.00
2022-08-31T00:50:41.589Z,0.00
2022-08-31T00:51:41.558Z,0.00
2022-08-31T00:52:41.591Z,0.00
2022-08-31T00:53:41.567Z,0.00
2022-08-31T00:54:41.551Z,0.00
2022-08-31T00:55:41.552Z,0.00
2022-08-31T00:56:41.552Z,0.00
2022-08-31T00:57:41.537Z,0.00
2022-08-31T00:58:41.546Z,0.00
2022-08-31T00:59:41.514Z,0.00
2022-08-31T01:00:41.536Z,0.00
2022-08-31T01:01:41.573Z,0.00
2022-08-31T01:02:41.497Z,0.00
2022-08-31T01:03:41.670Z,0.00
2022-08-31T01:04:41.515Z,0.00
2022-08-31T01:05:41.485Z,0.00
2022-08-31T01:06:41.462Z,0.00
2022-08-31T01:07:41.475Z,0.00
2022-08-31T01:08:41.471Z,0.00
2022-08-31T01:09:45.186Z,0.00
2022-08-31T01:10:41.459Z,0.00
2022-08-31T01:11:41.449Z,0.00
2022-08-31T01:12:41.450Z,0.00
2022-08-31T01:13:41.428Z,0.00
2022-08-31T01:14:41.527Z,0.00
2022-08-31T01:15:41.425Z,0.00
2022-08-31T01:16:41.453Z,0.00
2022-08-31T01:17:41.422Z,0.00
2022-08-31T01:18:41.406Z,0.00
2022-08-31T01:19:41.397Z,0.00
2022-08-31T01:20:41.429Z,0.00
2022-08-31T01:21:42.385Z,0.00
2022-08-31T01:22:41.386Z,0.00
2022-08-31T01:23:41.373Z,0.00
2022-08-31T01:24:41.379Z,0.00
2022-08-31T01:25:41.397Z,0.00
2022-08-31T01:26:41.361Z,0.00
2022-08-31T01:27:41.358Z,0.00
2022-08-31T01:28:41.346Z,0.00
2022-08-31T01:29:41.338Z,0.00
2022-08-31T01:30:41.321Z,0.00
2022-08-31T01:31:41.394Z,0.00
2022-08-31T01:32:41.323Z,0.00
2022-08-31T01:33:41.336Z,0.00
2022-08-31T01:34:41.309Z,0.00
2022-08-31T01:35:41.308Z,0.00
2022-08-31T01:36:41.326Z,0.00
2022-08-31T01:37:41.308Z,0.00
2022-08-31T01:38:41.287Z,0.00
2022-08-31T01:39:41.283Z,0.00
2022-08-31T01:40:41.298Z,0.00
2022-08-31T01:41:41.264Z,0.00
2022-08-31T01:42:44.652Z,0.00
2022-08-31T01:43:41.262Z,0.00
2022-08-31T01:44:41.255Z,0.00
2022-08-31T01:45:41.264Z,0.00
2022-08-31T01:46:41.350Z,0.00
2022-08-31T01:47:41.230Z,0.00
2022-08-31T01:48:41.764Z,0.00
2022-08-31T01:49:41.225Z,0.00
2022-08-31T01:50:41.226Z,0.00
2022-08-31T01:51:41.213Z,0.00
2022-08-31T01:52:41.220Z,0.00
2022-08-31T01:53:42.099Z,0.00
2022-08-31T01:54:41.210Z,0.00
2022-08-31T01:55:41.188Z,0.00
2022-08-31T01:56:41.194Z,0.00
2022-08-31T01:57:41.190Z,0.00
2022-08-31T01:58:41.168Z,0.00
2022-08-31T01:59:41.200Z,0.00
2022-08-31T02:00:41.248Z,0.00
2022-08-31T02:01:41.244Z,0.00
2022-08-31T02:02:41.982Z,0.00
2022-08-31T02:03:41.142Z,0.00
2022-08-31T02:04:41.172Z,0.00
2022-08-31T02:05:41.131Z,0.00
2022-08-31T02:06:41.132Z,0.00
2022-08-31T02:07:41.118Z,0.00
2022-08-31T02:08:41.112Z,0.00
2022-08-31T02:09:41.107Z,0.00
2022-08-31T02:10:41.129Z,0.00
2022-08-31T02:11:41.101Z,0.00
2022-08-31T02:12:41.087Z,0.00
2022-08-31T02:13:41.086Z,0.00
2022-08-31T02:14:41.074Z,0.00
2022-08-31T02:15:41.098Z,0.00
2022-08-31T02:16:41.132Z,0.00
2022-08-31T02:17:41.069Z,0.00
2022-08-31T02:18:42.060Z,0.00
2022-08-31T02:19:41.058Z,0.00
2022-08-31T02:20:41.050Z,0.00
2022-08-31T02:21:42.053Z,0.00
2022-08-31T02:22:41.033Z,0.00
2022-08-31T02:23:41.026Z,0.00
2022-08-31T02:24:41.023Z,0.00
2022-08-31T02:25:41.009Z,0.00
2022-08-31T02:26:41.017Z,0.00
2022-08-31T02:27:41.020Z,0.00
2022-08-31T02:28:41.048Z,0.00
2022-08-31T02:29:41.009Z,0.00
2022-08-31T02:30:40.971Z,0.00
2022-08-31T02:31:42.050Z,0.00
2022-08-31T02:32:40.973Z,0.00
2022-08-31T02:33:40.973Z,0.00
2022-08-31T02:34:40.968Z,0.00
2022-08-31T02:35:40.961Z,0.00
2022-08-31T02:36:40.953Z,0.00
2022-08-31T02:37:40.957Z,0.00
2022-08-31T02:38:40.946Z,0.00
2022-08-31T02:39:40.926Z,0.00
2022-08-31T02:40:41.034Z,0.00
2022-08-31T02:41:40.928Z,0.00
2022-08-31T02:42:52.956Z,0.00
2022-08-31T02:43:41.910Z,0.00
2022-08-31T02:44:40.908Z,0.00
2022-08-31T02:45:40.882Z,0.00
2022-08-31T02:46:40.943Z,0.00
2022-08-31T02:47:40.886Z,0.00
2022-08-31T02:48:40.907Z,0.00
2022-08-31T02:49:40.876Z,0.00
2022-08-31T02:50:40.863Z,0.00
2022-08-31T02:51:40.864Z,0.00
2022-08-31T02:52:40.868Z,0.00
2022-08-31T02:53:40.948Z,0.00
2022-08-31T02:54:40.859Z,0.00
2022-08-31T02:55:40.831Z,0.00
2022-08-31T02:56:40.856Z,0.00
2022-08-31T02:57:40.812Z,0.00
2022-08-31T02:58:40.822Z,0.00
2022-08-31T02:59:40.845Z,0.00
2022-08-31T03:00:40.807Z,0.00
2022-08-31T03:01:40.869Z,0.00
2022-08-31T03:02:40.807Z,0.00
2022-08-31T03:03:40.795Z,0.00
2022-08-31T03:04:41.812Z,0.00
2022-08-31T03:05:40.766Z,0.00
2022-08-31T03:06:40.773Z,0.00
2022-08-31T03:07:40.779Z,0.00
2022-08-31T03:08:40.766Z,0.00
2022-08-31T03:09:40.755Z,0.00
2022-08-31T03:10:40.855Z,0.00
2022-08-31T03:11:40.749Z,0.00
2022-08-31T03:12:40.722Z,0.00
2022-08-31T03:13:40.724Z,0.00
2022-08-31T03:14:40.720Z,0.00
2022-08-31T03:15:40.867Z,0.00
2022-08-31T03:16:40.697Z,0.00
2022-08-31T03:17:40.715Z,0.00
2022-08-31T03:18:40.694Z,0.00
2022-08-31T03:19:40.709Z,0.00
2022-08-31T03:20:40.687Z,0.00
2022-08-31T03:21:40.707Z,0.00
2022-08-31T03:22:40.680Z,0.00
2022-08-31T03:23:40.674Z,0.00
2022-08-31T03:24:40.672Z,0.00
2022-08-31T03:25:40.646Z,0.00
2022-08-31T03:26:41.778Z,0.00
2022-08-31T03:27:40.653Z,0.00
2022-08-31T03:28:40.627Z,0.00
2022-08-31T03:29:40.642Z,0.00
2022-08-31T03:30:40.696Z,0.00
2022-08-31T03:31:40.663Z,0.00
2022-08-31T03:32:40.710Z,0.00
2022-08-31T03:33:40.597Z,0.00
2022-08-31T03:34:40.608Z,0.00
2022-08-31T03:35:40.611Z,0.00
2022-08-31T03:36:40.604Z,0.00
2022-08-31T03:37:40.604Z,0.00
2022-08-31T03:38:40.582Z,0.00
2022-08-31T03:39:40.567Z,0.00
2022-08-31T03:40:40.658Z,0.00
2022-08-31T03:41:40.553Z,0.00
2022-08-31T03:42:40.551Z,0.00
2022-08-31T03:43:40.568Z,0.00
2022-08-31T03:44:40.558Z,0.00
2022-08-31T03:45:40.550Z,0.00
2022-08-31T03:46:40.601Z,0.00
2022-08-31T03:47:44.575Z,0.00
2022-08-31T03:48:40.573Z,0.00
2022-08-31T03:49:40.519Z,0.00
2022-08-31T03:50:40.512Z,0.00
2022-08-31T03:51:40.507Z,0.00
2022-08-31T03:52:40.498Z,0.00
2022-08-31T03:53:40.506Z,0.00
2022-08-31T03:54:40.618Z,0.00
2022-08-31T03:55:40.485Z,0.00
2022-08-31T03:56:40.489Z,0.00
2022-08-31T03:57:40.492Z,0.00
2022-08-31T03:58:40.471Z,0.00
2022-08-31T03:59:40.579Z,0.00
2022-08-31T04:00:40.454Z,0.00
2022-08-31T04:01:40.454Z,0.00
2022-08-31T04:02:40.487Z,0.00
2022-08-31T04:03:40.447Z,0.00
2022-08-31T04:04:40.418Z,4.00
2022-08-31T04:05:40.528Z,0.00
2022-08-31T04:06:40.424Z,0.00
2022-08-31T04:07:42.884Z,0.00
2022-08-31T04:08:40.420Z,0.00
2022-08-31T04:09:40.399Z,4.00
2022-08-31T04:10:40.467Z,0.00
2022-08-31T04:11:45.062Z,0.00
2022-08-31T04:12:41.396Z,4.00
2022-08-31T04:13:40.389Z,0.00
2022-08-31T04:14:40.372Z,4.00
2022-08-31T04:15:40.395Z,4.00
2022-08-31T04:16:40.401Z,8.00
2022-08-31T04:17:40.334Z,8.00
2022-08-31T04:18:40.345Z,8.00
2022-08-31T04:19:40.335Z,8.00
2022-08-31T04:20:40.345Z,12.00
2022-08-31T04:21:40.344Z,12.00
2022-08-31T04:22:40.321Z,16.00
2022-08-31T04:23:40.319Z,16.00
2022-08-31T04:24:40.305Z,20.00
2022-08-31T04:25:40.299Z,20.00
2022-08-31T04:26:40.297Z,24.00
2022-08-31T04:27:40.313Z,24.00
2022-08-31T04:28:40.281Z,32.00
2022-08-31T04:29:40.284Z,32.00
2022-08-31T04:30:40.330Z,32.00
2022-08-31T04:31:40.275Z,36.00
2022-08-31T04:32:40.367Z,44.00
2022-08-31T04:33:40.243Z,48.00
2022-08-31T04:34:40.250Z,48.00
2022-08-31T04:35:40.227Z,52.00
2022-08-31T04:36:40.243Z,56.00
2022-08-31T04:37:43.400Z,60.00
2022-08-31T04:38:40.243Z,64.00
2022-08-31T04:39:50.706Z,72.00
2022-08-31T04:40:40.266Z,76.00
2022-08-31T04:41:40.215Z,80.00
2022-08-31T04:42:40.195Z,84.00
2022-08-31T04:43:40.228Z,92.00
2022-08-31T04:44:40.186Z,100.00
2022-08-31T04:45:40.237Z,108.00
2022-08-31T04:46:40.180Z,112.00
2022-08-31T04:47:40.182Z,120.00
2022-08-31T04:48:40.175Z,132.00
2022-08-31T04:49:40.178Z,144.00
2022-08-31T04:50:42.660Z,156.00
2022-08-31T04:51:40.158Z,168.00
2022-08-31T04:52:40.143Z,180.00
2022-08-31T04:53:40.128Z,192.00
2022-08-31T04:54:40.144Z,208.00
2022-08-31T04:55:40.120Z,220.00
2022-08-31T04:56:40.129Z,232.00
2022-08-31T04:57:40.108Z,244.00
2022-08-31T04:58:40.101Z,256.00
2022-08-31T04:59:40.107Z,268.00
2022-08-31T05:00:40.214Z,284.00
2022-08-31T05:01:42.688Z,296.00
2022-08-31T05:02:40.159Z,312.00
2022-08-31T05:03:40.077Z,328.00
2022-08-31T05:04:40.090Z,336.00
2022-08-31T05:05:40.074Z,348.00
2022-08-31T05:06:40.063Z,364.00
2022-08-31T05:07:40.058Z,380.00
2022-08-31T05:08:40.057Z,404.00
2022-08-31T05:09:40.034Z,428.00
2022-08-31T05:10:40.054Z,452.00
2022-08-31T05:11:40.061Z,480.00
2022-08-31T05:12:40.019Z,508.00
2022-08-31T05:13:40.018Z,536.00
2022-08-31T05:14:39.997Z,560.00
2022-08-31T05:15:40.056Z,580.00
2022-08-31T05:16:40.027Z,592.00
2022-08-31T05:17:39.990Z,608.00
2022-08-31T05:18:39.973Z,624.00
2022-08-31T05:19:41.306Z,648.00
2022-08-31T05:20:41.083Z,672.00
2022-08-31T05:21:39.980Z,692.00
2022-08-31T05:22:39.973Z,716.00
2022-08-31T05:23:39.962Z,744.00
2022-08-31T05:24:39.954Z,776.00
2022-08-31T05:25:39.944Z,816.00
2022-08-31T05:26:42.028Z,864.00
2022-08-31T05:27:39.937Z,920.00
2022-08-31T05:28:39.938Z,964.00
2022-08-31T05:29:39.922Z,1048.00
2022-08-31T05:30:40.008Z,1136.00
2022-08-31T05:31:39.988Z,1208.00
2022-08-31T05:32:39.901Z,1272.00
2022-08-31T05:33:39.912Z,1332.00
2022-08-31T05:34:39.890Z,1388.00
2022-08-31T05:35:39.892Z,1428.00
2022-08-31T05:36:39.881Z,1472.00
2022-08-31T05:37:39.889Z,1512.00
2022-08-31T05:38:39.876Z,1520.00
2022-08-31T05:39:39.873Z,1544.00
2022-08-31T05:40:39.966Z,1568.00
2022-08-31T05:41:39.845Z,1604.00
2022-08-31T05:42:39.870Z,1648.00
2022-08-31T05:43:39.837Z,1692.00
2022-08-31T05:44:39.833Z,1748.00
2022-08-31T05:45:39.833Z,1792.00
2022-08-31T05:46:39.868Z,1804.00
2022-08-31T05:47:39.825Z,1788.00
2022-08-31T05:48:39.857Z,1840.00
2022-08-31T05:49:39.809Z,1872.00
2022-08-31T05:50:39.796Z,1884.00
2022-08-31T05:51:39.822Z,1892.00
2022-08-31T05:52:39.802Z,1880.00
2022-08-31T05:53:39.821Z,1916.00
2022-08-31T05:54:39.791Z,1936.00
2022-08-31T05:55:39.777Z,1932.00
2022-08-31T05:56:39.776Z,1936.00
2022-08-31T05:57:39.771Z,1936.00
2022-08-31T05:58:39.764Z,1928.00
2022-08-31T05:59:39.867Z,1908.00
2022-08-31T06:00:39.748Z,1864.00
2022-08-31T06:01:39.824Z,1840.00
2022-08-31T06:02:39.756Z,1836.00
2022-08-31T06:03:39.751Z,1840.00
2022-08-31T06:04:39.767Z,1792.00
2022-08-31T06:05:39.804Z,1712.00
2022-08-31T06:06:39.728Z,1624.00
2022-08-31T06:07:39.727Z,1560.00
2022-08-31T06:08:39.712Z,1492.00
2022-08-31T06:09:39.689Z,1444.00
2022-08-31T06:10:39.815Z,1448.00
2022-08-31T06:11:39.705Z,1440.00
2022-08-31T06:12:39.702Z,1424.00
2022-08-31T06:13:39.674Z,1476.00
2022-08-31T06:14:40.887Z,1544.00
2022-08-31T06:15:42.257Z,1624.00
2022-08-31T06:16:39.746Z,1576.00
2022-08-31T06:17:39.643Z,1532.00
2022-08-31T06:18:39.639Z,1564.00
2022-08-31T06:19:39.630Z,1572.00
2022-08-31T06:20:39.658Z,1532.00
2022-08-31T06:21:39.656Z,1484.00
2022-08-31T06:22:40.630Z,1444.00
2022-08-31T06:23:39.626Z,1444.00
2022-08-31T06:24:39.620Z,1456.00
2022-08-31T06:25:39.641Z,1472.00
2022-08-31T06:26:39.646Z,1528.00
2022-08-31T06:27:39.599Z,1640.00
2022-08-31T06:28:39.595Z,1792.00
2022-08-31T06:29:39.585Z,1880.00
2022-08-31T06:30:54.361Z,1900.00
2022-08-31T06:31:40.635Z,1840.00
2022-08-31T06:32:39.585Z,1808.00
2022-08-31T06:33:39.581Z,1812.00
2022-08-31T06:34:39.595Z,1844.00
2022-08-31T06:35:39.566Z,1904.00
2022-08-31T06:36:39.537Z,2012.00
2022-08-31T06:37:39.600Z,2156.00
2022-08-31T06:38:39.554Z,2172.00
2022-08-31T06:39:39.535Z,2132.00
2022-08-31T06:40:39.674Z,2152.00
2022-08-31T06:41:39.533Z,2192.00
2022-08-31T06:42:39.557Z,2196.00
2022-08-31T06:43:39.522Z,2152.00
2022-08-31T06:44:39.490Z,2120.00
2022-08-31T06:45:39.495Z,2100.00
2022-08-31T06:46:39.552Z,2052.00
2022-08-31T06:47:39.495Z,2104.00
2022-08-31T06:48:39.632Z,2192.00
2022-08-31T06:49:39.485Z,2280.00
2022-08-31T06:50:39.477Z,2356.00
2022-08-31T06:51:39.465Z,2408.00
2022-08-31T06:52:39.439Z,2464.00
2022-08-31T06:53:39.478Z,2548.00
2022-08-31T06:54:39.436Z,2564.00
2022-08-31T06:55:39.456Z,2532.00
2022-08-31T06:56:39.440Z,2492.00
2022-08-31T06:57:39.440Z,2520.00
2022-08-31T06:58:39.422Z,2496.00
2022-08-31T06:59:39.539Z,2404.00
2022-08-31T07:00:39.404Z,2336.00
2022-08-31T07:01:39.534Z,2332.00
2022-08-31T07:02:39.461Z,2408.00
2022-08-31T07:03:39.406Z,2444.00
2022-08-31T07:04:39.497Z,2420.00
2022-08-31T07:05:39.392Z,2404.00
2022-08-31T07:06:39.376Z,2440.00
2022-08-31T07:07:39.390Z,2512.00
2022-08-31T07:08:39.348Z,2504.00
2022-08-31T07:09:39.352Z,2572.00
2022-08-31T07:10:39.476Z,2676.00
2022-08-31T07:11:43.683Z,2784.00
2022-08-31T07:12:40.373Z,2876.00
2022-08-31T07:13:39.340Z,2984.00
2022-08-31T07:14:39.364Z,2892.00
2022-08-31T07:15:39.376Z,2816.00
2022-08-31T07:16:39.342Z,2820.00
2022-08-31T07:17:39.323Z,2836.00
2022-08-31T07:18:39.312Z,2836.00
2022-08-31T07:19:44.795Z,2820.00
2022-08-31T07:20:39.302Z,2780.00
2022-08-31T07:21:39.328Z,2780.00
2022-08-31T07:22:39.299Z,2732.00
2022-08-31T07:23:39.283Z,2636.00
2022-08-31T07:24:39.263Z,2568.00
2022-08-31T07:25:39.272Z,2580.00
2022-08-31T07:26:39.934Z,2612.00
2022-08-31T07:27:39.262Z,2592.00
2022-08-31T07:28:39.263Z,2640.00
2022-08-31T07:29:39.240Z,2736.00
2022-08-31T07:30:39.268Z,2732.00
2022-08-31T07:31:39.230Z,2716.00
2022-08-31T07:32:39.465Z,2792.00
2022-08-31T07:33:39.212Z,2784.00
2022-08-31T07:34:39.226Z,2840.00
2022-08-31T07:35:39.211Z,2868.00
2022-08-31T07:36:39.286Z,2928.00
2022-08-31T07:37:39.291Z,3004.00
2022-08-31T07:38:39.193Z,3224.00
2022-08-31T07:39:39.171Z,3380.00
2022-08-31T07:40:39.240Z,3264.00
2022-08-31T07:41:39.177Z,3248.00
2022-08-31T07:42:39.181Z,3288.00
2022-08-31T07:43:39.194Z,3292.00
2022-08-31T07:44:39.174Z,3348.00
2022-08-31T07:45:39.583Z,3564.00
2022-08-31T07:46:39.133Z,3696.00
2022-08-31T07:47:39.130Z,3708.00
2022-08-31T07:48:39.236Z,3544.00
2022-08-31T07:49:39.118Z,3520.00
2022-08-31T07:50:39.132Z,3580.00
2022-08-31T07:51:39.113Z,3788.00
2022-08-31T07:52:39.184Z,3820.00
2022-08-31T07:53:39.109Z,3816.00
2022-08-31T07:54:39.149Z,3524.00
2022-08-31T07:55:39.098Z,3480.00
2022-08-31T07:56:39.078Z,3760.00
2022-08-31T07:57:39.089Z,3936.00
2022-08-31T07:58:39.111Z,4256.00
2022-08-31T07:59:39.187Z,4388.00
2022-08-31T08:00:39.056Z,4544.00
2022-08-31T08:01:39.128Z,4584.00
2022-08-31T08:02:39.152Z,4592.00
2022-08-31T08:03:39.062Z,4596.00
2022-08-31T08:04:39.061Z,4640.00
2022-08-31T08:05:39.141Z,4904.00
2022-08-31T08:06:39.025Z,5156.00
2022-08-31T08:07:39.040Z,5328.00
2022-08-31T08:08:39.005Z,5480.00
2022-08-31T08:09:39.008Z,5644.00
2022-08-31T08:10:39.025Z,5780.00
2022-08-31T08:11:38.990Z,5928.00
2022-08-31T08:12:39.003Z,6060.00
2022-08-31T08:13:38.974Z,6064.00
2022-08-31T08:14:38.991Z,6384.00
2022-08-31T08:15:40.383Z,6780.00
2022-08-31T08:16:39.154Z,7232.00
2022-08-31T08:17:38.961Z,6816.00
2022-08-31T08:18:38.956Z,7748.00
2022-08-31T08:19:38.954Z,8480.00
2022-08-31T08:20:39.290Z,8976.00
2022-08-31T08:21:39.034Z,9200.00
2022-08-31T08:22:51.712Z,7968.00
2022-08-31T08:23:48.839Z,7508.00
2022-08-31T08:24:38.909Z,7680.00
2022-08-31T08:25:38.909Z,7868.00
2022-08-31T08:26:38.911Z,8408.00
2022-08-31T08:27:38.930Z,8528.00
2022-08-31T08:28:40.601Z,10624.00
2022-08-31T08:29:39.897Z,14208.00
2022-08-31T08:30:38.886Z,14736.00
2022-08-31T08:31:38.972Z,15012.00
2022-08-31T08:32:38.878Z,13084.00
2022-08-31T08:33:38.854Z,13412.00
2022-08-31T08:34:38.862Z,14188.00
2022-08-31T08:35:38.906Z,11576.00
2022-08-31T08:36:38.899Z,17216.00
2022-08-31T08:37:57.398Z,14920.00
2022-08-31T08:38:40.939Z,16224.00
2022-08-31T08:39:38.834Z,11708.00
2022-08-31T08:40:38.992Z,13568.00
2022-08-31T08:41:38.828Z,11864.00
2022-08-31T08:42:38.800Z,11552.00
2022-08-31T08:43:38.873Z,10332.00
2022-08-31T08:44:38.909Z,13120.00
2022-08-31T08:45:38.817Z,11076.00
2022-08-31T08:46:38.844Z,9992.00
2022-08-31T08:47:39.116Z,10356.00
2022-08-31T08:48:38.769Z,9192.00
2022-08-31T08:49:38.855Z,10596.00
2022-08-31T08:50:38.762Z,9444.00
2022-08-31T08:51:38.754Z,9696.00
2022-08-31T08:52:38.742Z,10752.00
2022-08-31T08:53:38.740Z,10208.00
2022-08-31T08:54:38.793Z,17472.00
2022-08-31T08:55:38.844Z,17792.00
2022-08-31T08:56:38.711Z,17728.00
2022-08-31T08:57:38.723Z,12888.00
2022-08-31T08:58:38.708Z,13768.00
2022-08-31T08:59:38.716Z,10496.00
2022-08-31T09:00:38.734Z,10644.00
2022-08-31T09:01:38.792Z,12276.00
2022-08-31T09:02:38.815Z,16512.00
2022-08-31T09:03:38.688Z,13740.00
2022-08-31T09:04:38.673Z,16320.00
2022-08-31T09:05:38.658Z,10952.00
2022-08-31T09:06:45.407Z,10176.00
2022-08-31T09:07:39.674Z,9060.00
2022-08-31T09:08:38.659Z,8800.00
2022-08-31T09:09:38.650Z,9364.00
2022-08-31T09:10:38.645Z,10932.00
2022-08-31T09:11:38.642Z,10136.00
2022-08-31T09:12:38.686Z,10836.00
2022-08-31T09:13:38.632Z,11592.00
2022-08-31T09:14:38.615Z,11308.00
2022-08-31T09:15:39.648Z,12660.00
2022-08-31T09:16:38.611Z,11616.00
2022-08-31T09:17:38.628Z,17792.00
2022-08-31T09:18:38.617Z,13008.00
2022-08-31T09:19:38.595Z,12000.00
2022-08-31T09:20:38.595Z,15196.00
2022-08-31T09:21:38.580Z,12824.00
2022-08-31T09:22:39.711Z,20032.00
2022-08-31T09:23:38.558Z,18656.00
2022-08-31T09:24:38.570Z,18720.00
2022-08-31T09:25:38.591Z,17376.00
2022-08-31T09:26:38.563Z,19872.00
2022-08-31T09:27:38.550Z,21888.00
2022-08-31T09:28:38.678Z,22176.00
2022-08-31T09:29:38.543Z,23552.00
2022-08-31T09:30:38.545Z,23040.00
2022-08-31T09:31:39.114Z,23200.00
2022-08-31T09:32:38.519Z,24640.00
2022-08-31T09:33:38.597Z,25760.00
2022-08-31T09:34:38.516Z,26144.00
2022-08-31T09:35:38.509Z,26464.00
2022-08-31T09:36:38.506Z,27040.00
2022-08-31T09:37:38.482Z,26016.00
2022-08-31T09:38:38.486Z,25920.00
2022-08-31T09:39:38.589Z,25920.00
2022-08-31T09:40:38.516Z,26208.00
2022-08-31T09:41:38.472Z,21312.00
2022-08-31T09:42:38.479Z,24864.00
2022-08-31T09:43:38.469Z,25152.00
2022-08-31T09:44:38.571Z,22400.00
2022-08-31T09:45:42.126Z,21216.00
2022-08-31T09:46:38.452Z,21792.00
2022-08-31T09:47:38.423Z,22720.00
2022-08-31T09:48:38.412Z,20640.00
2022-08-31T09:49:38.431Z,21184.00
2022-08-31T09:50:38.438Z,21056.00
2022-08-31T09:51:38.806Z,20192.00
2022-08-31T09:52:38.396Z,20960.00
2022-08-31T09:53:38.412Z,19872.00
2022-08-31T09:54:41.011Z,15776.00
2022-08-31T09:55:38.488Z,21504.00
2022-08-31T09:56:38.375Z,14688.00
2022-08-31T09:57:38.361Z,13600.00
2022-08-31T09:58:38.401Z,11320.00
2022-08-31T09:59:38.861Z,22016.00
2022-08-31T10:00:38.373Z,24096.00
2022-08-31T10:01:38.683Z,24832.00
2022-08-31T10:02:38.351Z,15208.00
2022-08-31T10:03:38.354Z,24128.00
2022-08-31T10:04:38.394Z,10816.00
2022-08-31T10:05:38.342Z,11076.00
2022-08-31T10:06:38.421Z,10960.00
2022-08-31T10:07:38.400Z,14160.00
2022-08-31T10:08:38.339Z,10520.00
2022-08-31T10:09:38.311Z,10776.00
2022-08-31T10:10:38.311Z,16832.00
2022-08-31T10:11:38.300Z,11664.00
2022-08-31T10:12:38.328Z,10744.00
2022-08-31T10:13:38.291Z,14428.00
2022-08-31T10:14:38.282Z,12780.00
2022-08-31T10:15:38.369Z,14448.00
2022-08-31T10:16:38.279Z,15936.00
2022-08-31T10:17:38.289Z,13284.00
2022-08-31T10:18:38.277Z,16256.00
2022-08-31T10:19:38.248Z,12548.00
2022-08-31T10:20:38.256Z,11108.00
2022-08-31T10:21:38.251Z,10884.00
2022-08-31T10:22:38.236Z,10272.00
2022-08-31T10:23:38.264Z,10432.00
2022-08-31T10:24:38.233Z,11100.00
2022-08-31T10:25:38.237Z,13960.00
2022-08-31T10:26:38.227Z,14872.00
2022-08-31T10:27:38.213Z,12412.00
2022-08-31T10:28:38.219Z,14568.00
2022-08-31T10:29:38.208Z,11244.00
2022-08-31T10:30:38.311Z,13524.00
2022-08-31T10:31:38.260Z,13236.00
2022-08-31T10:32:38.182Z,12224.00
2022-08-31T10:33:38.188Z,11940.00
2022-08-31T10:34:38.281Z,11800.00
2022-08-31T10:35:38.174Z,11620.00
2022-08-31T10:36:38.157Z,12324.00
2022-08-31T10:37:38.164Z,13064.00
2022-08-31T10:38:38.143Z,13280.00
2022-08-31T10:39:38.363Z,13432.00
2022-08-31T10:40:38.204Z,13660.00
2022-08-31T10:41:38.120Z,13656.00
2022-08-31T10:42:38.123Z,13396.00
2022-08-31T10:43:38.120Z,13484.00
2022-08-31T10:44:38.107Z,13052.00
2022-08-31T10:45:38.135Z,12896.00
2022-08-31T10:46:38.157Z,12552.00
2022-08-31T10:47:38.091Z,11512.00
2022-08-31T10:48:38.088Z,10224.00
2022-08-31T10:49:38.086Z,9796.00
2022-08-31T10:50:38.119Z,10288.00
2022-08-31T10:51:38.089Z,10544.00
2022-08-31T10:52:38.059Z,11320.00
2022-08-31T10:53:39.993Z,11520.00
2022-08-31T10:54:38.061Z,10192.00
2022-08-31T10:55:38.041Z,10592.00
2022-08-31T10:56:38.075Z,11016.00
2022-08-31T10:57:38.035Z,10536.00
2022-08-31T10:58:38.037Z,10376.00
2022-08-31T10:59:38.033Z,10080.00
2022-08-31T11:00:38.033Z,8768.00
2022-08-31T11:01:38.171Z,8948.00
2022-08-31T11:02:38.005Z,9048.00
2022-08-31T11:03:38.055Z,8988.00
2022-08-31T11:04:38.085Z,8760.00
2022-08-31T11:05:37.969Z,8080.00
2022-08-31T11:06:37.969Z,7476.00
2022-08-31T11:07:38.074Z,7472.00
2022-08-31T11:08:37.964Z,7344.00
2022-08-31T11:09:37.969Z,7048.00
2022-08-31T11:10:37.966Z,7404.00
2022-08-31T11:11:42.532Z,8084.00
2022-08-31T11:12:39.058Z,8068.00
2022-08-31T11:13:37.942Z,8040.00
2022-08-31T11:14:37.947Z,8152.00
2022-08-31T11:15:37.976Z,8116.00
2022-08-31T11:16:37.914Z,7896.00
2022-08-31T11:17:37.934Z,7920.00
2022-08-31T11:18:38.015Z,7884.00
2022-08-31T11:19:37.908Z,7460.00
2022-08-31T11:20:37.878Z,6788.00
2022-08-31T11:21:38.890Z,6200.00
2022-08-31T11:22:37.923Z,5600.00
2022-08-31T11:23:42.286Z,5172.00
2022-08-31T11:24:37.876Z,4792.00
2022-08-31T11:25:37.879Z,4688.00
2022-08-31T11:26:37.885Z,4764.00
2022-08-31T11:27:37.891Z,4976.00
2022-08-31T11:28:37.842Z,5304.00
2022-08-31T11:29:37.967Z,5388.00
2022-08-31T11:30:41.970Z,5188.00
2022-08-31T11:31:37.927Z,5008.00
2022-08-31T11:32:38.621Z,5064.00
2022-08-31T11:33:37.850Z,5216.00
2022-08-31T11:34:38.840Z,5356.00
2022-08-31T11:35:42.190Z,5572.00
2022-08-31T11:36:38.811Z,5812.00
2022-08-31T11:37:37.827Z,5988.00
2022-08-31T11:38:37.817Z,5996.00
2022-08-31T11:39:37.802Z,5988.00
2022-08-31T11:40:37.866Z,6108.00
2022-08-31T11:41:37.777Z,6144.00
2022-08-31T11:42:37.762Z,6148.00
2022-08-31T11:43:37.770Z,6168.00
2022-08-31T11:44:37.757Z,6108.00
2022-08-31T11:45:37.858Z,5992.00
2022-08-31T11:46:37.872Z,5932.00
2022-08-31T11:47:37.743Z,5988.00
2022-08-31T11:48:37.732Z,6144.00
2022-08-31T11:49:37.735Z,6264.00
2022-08-31T11:50:37.724Z,6296.00
2022-08-31T11:51:41.224Z,6364.00
2022-08-31T11:52:38.719Z,6456.00
2022-08-31T11:53:37.709Z,6504.00
2022-08-31T11:54:37.709Z,6500.00
2022-08-31T11:55:37.710Z,6508.00
2022-08-31T11:56:37.738Z,6600.00
2022-08-31T11:57:37.991Z,6680.00
2022-08-31T11:58:38.693Z,6688.00
2022-08-31T11:59:37.690Z,6660.00
2022-08-31T12:00:37.674Z,6612.00
2022-08-31T12:01:37.664Z,6488.00
2022-08-31T12:02:37.810Z,6440.00
2022-08-31T12:03:37.666Z,6540.00
2022-08-31T12:04:37.645Z,6704.00
2022-08-31T12:05:38.655Z,6900.00
2022-08-31T12:06:37.630Z,7092.00
2022-08-31T12:07:37.756Z,7196.00
2022-08-31T12:08:37.635Z,7232.00
2022-08-31T12:09:37.617Z,7240.00
2022-08-31T12:10:37.600Z,7268.00
2022-08-31T12:11:37.601Z,7320.00
2022-08-31T12:12:37.623Z,7340.00
2022-08-31T12:13:37.638Z,7332.00
2022-08-31T12:14:37.592Z,7296.00
2022-08-31T12:15:37.623Z,7268.00
2022-08-31T12:16:37.591Z,7300.00
2022-08-31T12:17:37.581Z,7356.00
2022-08-31T12:18:37.600Z,7480.00
2022-08-31T12:19:37.553Z,7608.00
2022-08-31T12:20:37.567Z,7672.00
2022-08-31T12:21:37.588Z,7744.00
2022-08-31T12:22:37.563Z,7768.00
2022-08-31T12:23:37.543Z,7808.00
2022-08-31T12:24:37.857Z,7880.00
2022-08-31T12:25:37.520Z,7928.00
2022-08-31T12:26:40.673Z,7960.00
2022-08-31T12:27:37.529Z,7984.00